Ana Sayfa
METAR-TAF:

METAR-TAF

Havaalanları :

Pointe-Noire, Kongo

Enlem: 04-49S, Boylam: 011-54E, yükseklik: 17 m

Güncel hava durumu gözlemi

Rapor saat 00:00 UTC de 43 dakika önce yapıldı.
Sakin rüzgar
Sıcaklık 22°C
Nem 94%
Basınç 1014 hPa
Görüş mesafesi: 6000 m
900 ft yükseklikte az bulutlu
2300 ft yükseklikte parçalı çok bulutlu

METAR: FCPP 180000Z 00000KT 6000 FEW009 BKN023 22/21 Q1014 BECMG 4000 BR

Saat: 01:43 (00:43 UTC)

Tahmin

Rapor saat 23:00 UTC de 1 saat ve 43 dakika önce yapıldı.
Ayın 18'si saat 00 UTC'den ayın 18'si saat 24 UTC'ye kadar geçerli Tahmin
Rüzgar güney/güneybatıdan 4 kt
Görüş mesafesi: 8000 m
2000 ft yükseklikte parçalı bulutlu
Olasılık 30%
ayın 18'si saat 04 UTC'den ayın 18'si saat 08 UTC'ye kadar
Görüş mesafesi: 3000 m
Pus

TAF: FCPP 172300Z 1800/1824 20004KT 8000 SCT020 PROB30 1804/1808 3000 BR

4.000'den fazla havaalanı için hava durumu gözlemleri ve tahminleri (METAR ve TAF raporları).

Kullanılabilir istasyonlar harita üzerinde sarı ve kırmızı noktalarla gösterilir.

İstasyonun adını görmek için fareyi noktanın üzerinde gezdirin.

Sonrasında hava gözlem ve tahminlerini görmek için tıklayın.

Haritayı değiştirmek için: yaklaştırmak için siyah artı işaretli yeşil düğmeye ve uzaklaştırmak için de eksi işaretli düğmeye hızla tıklayın; bitişik haritalar için yeşil okları kullanın.


METAR-TAF: